sensor_id;sensor_type;location;lat;lon;timestamp;P1;durP1;ratioP1;P2;durP2;ratioP2
23300;SDS011;11819;51.394;12.340;2023-03-26T00:00:58;3.15;;;1.70;;
23300;SDS011;11819;51.394;12.340;2023-03-26T00:03:24;2.30;;;1.30;;
23300;SDS011;11819;51.394;12.340;2023-03-26T00:06:00;4.63;;;2.10;;
23300;SDS011;11819;51.394;12.340;2023-03-26T00:08:31;4.70;;;2.00;;
23300;SDS011;11819;51.394;12.340;2023-03-26T00:11:01;5.47;;;2.50;;
23300;SDS011;11819;51.394;12.340;2023-03-26T00:13:27;5.82;;;2.58;;
23300;SDS011;11819;51.394;12.340;2023-03-26T00:15:53;3.75;;;2.17;;
23300;SDS011;11819;51.394;12.340;2023-03-26T00:18:19;6.18;;;2.55;;
23300;SDS011;11819;51.394;12.340;2023-03-26T00:20:46;4.07;;;2.10;;
23300;SDS011;11819;51.394;12.340;2023-03-26T00:23:12;4.55;;;2.05;;
23300;SDS011;11819;51.394;12.340;2023-03-26T00:25:38;2.67;;;1.80;;
23300;SDS011;11819;51.394;12.340;2023-03-26T00:28:06;4.47;;;1.52;;
23300;SDS011;11819;51.394;12.340;2023-03-26T00:30:32;2.20;;;1.23;;
23300;SDS011;11819;51.394;12.340;2023-03-26T00:33:00;2.58;;;1.10;;
23300;SDS011;11819;51.394;12.340;2023-03-26T00:35:26;2.67;;;1.27;;
23300;SDS011;11819;51.394;12.340;2023-03-26T00:37:54;1.98;;;1.20;;
23300;SDS011;11819;51.394;12.340;2023-03-26T00:40:20;1.98;;;1.30;;
23300;SDS011;11819;51.394;12.340;2023-03-26T00:42:47;1.15;;;0.88;;
23300;SDS011;11819;51.394;12.340;2023-03-26T00:45:13;3.63;;;1.20;;
23300;SDS011;11819;51.394;12.340;2023-03-26T00:47:38;1.75;;;1.30;;
23300;SDS011;11819;51.394;12.340;2023-03-26T00:50:04;3.58;;;1.40;;
23300;SDS011;11819;51.394;12.340;2023-03-26T00:52:31;3.47;;;1.60;;
23300;SDS011;11819;51.394;12.340;2023-03-26T00:54:57;1.27;;;0.90;;
23300;SDS011;11819;51.394;12.340;2023-03-26T00:57:23;2.00;;;1.20;;
23300;SDS011;11819;51.394;12.340;2023-03-26T00:59:54;1.70;;;1.27;;
23300;SDS011;11819;51.394;12.340;2023-03-26T01:02:20;3.20;;;1.30;;
23300;SDS011;11819;51.394;12.340;2023-03-26T01:04:55;2.15;;;1.00;;
23300;SDS011;11819;51.394;12.340;2023-03-26T01:07:25;1.65;;;1.08;;
23300;SDS011;11819;51.394;12.340;2023-03-26T01:09:54;3.67;;;1.50;;
23300;SDS011;11819;51.394;12.340;2023-03-26T01:12:23;1.10;;;0.82;;
23300;SDS011;11819;51.394;12.340;2023-03-26T01:14:52;2.22;;;1.15;;
23300;SDS011;11819;51.394;12.340;2023-03-26T01:17:20;3.95;;;1.73;;
23300;SDS011;11819;51.394;12.340;2023-03-26T01:19:52;5.88;;;1.20;;
23300;SDS011;11819;51.394;12.340;2023-03-26T01:22:23;6.43;;;1.83;;
23300;SDS011;11819;51.394;12.340;2023-03-26T01:24:50;2.40;;;1.65;;
23300;SDS011;11819;51.394;12.340;2023-03-26T01:27:37;2.67;;;1.35;;
23300;SDS011;11819;51.394;12.340;2023-03-26T01:30:17;3.58;;;1.88;;
23300;SDS011;11819;51.394;12.340;2023-03-26T01:36:01;4.03;;;2.03;;
23300;SDS011;11819;51.394;12.340;2023-03-26T01:42:00;2.08;;;1.20;;
23300;SDS011;11819;51.394;12.340;2023-03-26T01:45:06;5.03;;;1.88;;
23300;SDS011;11819;51.394;12.340;2023-03-26T01:47:27;3.88;;;1.65;;
23300;SDS011;11819;51.394;12.340;2023-03-26T01:49:54;3.42;;;1.77;;
23300;SDS011;11819;51.394;12.340;2023-03-26T01:52:21;4.35;;;2.08;;
23300;SDS011;11819;51.394;12.340;2023-03-26T01:54:50;2.97;;;1.80;;
23300;SDS011;11819;51.394;12.340;2023-03-26T01:57:26;2.95;;;1.63;;
23300;SDS011;11819;51.394;12.340;2023-03-26T02:00:25;3.97;;;2.15;;
23300;SDS011;11819;51.394;12.340;2023-03-26T02:03:12;3.53;;;1.65;;
23300;SDS011;11819;51.394;12.340;2023-03-26T02:08:59;4.38;;;1.83;;
23300;SDS011;11819;51.394;12.340;2023-03-26T02:11:33;2.05;;;1.58;;
23300;SDS011;11819;51.394;12.340;2023-03-26T02:14:02;2.65;;;1.50;;
23300;SDS011;11819;51.394;12.340;2023-03-26T02:16:29;4.30;;;1.70;;
23300;SDS011;11819;51.394;12.340;2023-03-26T02:18:55;3.75;;;2.13;;
23300;SDS011;11819;51.394;12.340;2023-03-26T02:21:23;3.58;;;2.00;;
23300;SDS011;11819;51.394;12.340;2023-03-26T02:23:51;5.32;;;2.03;;
23300;SDS011;11819;51.394;12.340;2023-03-26T02:26:30;2.90;;;1.70;;
23300;SDS011;11819;51.394;12.340;2023-03-26T02:29:05;3.92;;;1.52;;
23300;SDS011;11819;51.394;12.340;2023-03-26T02:31:32;4.47;;;1.90;;
23300;SDS011;11819;51.394;12.340;2023-03-26T02:33:59;2.50;;;1.52;;
23300;SDS011;11819;51.394;12.340;2023-03-26T02:36:28;4.47;;;1.95;;
23300;SDS011;11819;51.394;12.340;2023-03-26T02:38:57;4.38;;;2.05;;
23300;SDS011;11819;51.394;12.340;2023-03-26T02:41:24;5.13;;;2.30;;
23300;SDS011;11819;51.394;12.340;2023-03-26T02:43:57;5.30;;;2.70;;
23300;SDS011;11819;51.394;12.340;2023-03-26T02:46:37;5.18;;;2.30;;
23300;SDS011;11819;51.394;12.340;2023-03-26T02:49:24;4.78;;;2.60;;
23300;SDS011;11819;51.394;12.340;2023-03-26T02:51:51;7.30;;;2.78;;
23300;SDS011;11819;51.394;12.340;2023-03-26T02:54:24;5.25;;;2.08;;
23300;SDS011;11819;51.394;12.340;2023-03-26T02:57:09;5.38;;;2.42;;
23300;SDS011;11819;51.394;12.340;2023-03-26T02:59:50;6.07;;;2.83;;
23300;SDS011;11819;51.394;12.340;2023-03-26T03:02:35;6.93;;;3.03;;
23300;SDS011;11819;51.394;12.340;2023-03-26T03:05:30;7.40;;;3.22;;
23300;SDS011;11819;51.394;12.340;2023-03-26T03:08:11;8.88;;;3.22;;
23300;SDS011;11819;51.394;12.340;2023-03-26T03:11:30;7.00;;;2.78;;
23300;SDS011;11819;51.394;12.340;2023-03-26T03:13:41;9.60;;;4.28;;
23300;SDS011;11819;51.394;12.340;2023-03-26T03:16:07;5.65;;;2.72;;
23300;SDS011;11819;51.394;12.340;2023-03-26T03:18:34;7.45;;;3.97;;
23300;SDS011;11819;51.394;12.340;2023-03-26T03:21:00;2.63;;;1.95;;
23300;SDS011;11819;51.394;12.340;2023-03-26T03:23:27;4.30;;;1.98;;
23300;SDS011;11819;51.394;12.340;2023-03-26T03:26:02;4.30;;;2.20;;
23300;SDS011;11819;51.394;12.340;2023-03-26T03:28:29;5.10;;;2.53;;
23300;SDS011;11819;51.394;12.340;2023-03-26T03:30:54;6.53;;;2.88;;
23300;SDS011;11819;51.394;12.340;2023-03-26T03:33:27;5.43;;;2.58;;
23300;SDS011;11819;51.394;12.340;2023-03-26T03:35:53;5.55;;;2.70;;
23300;SDS011;11819;51.394;12.340;2023-03-26T03:38:19;4.90;;;2.35;;
23300;SDS011;11819;51.394;12.340;2023-03-26T03:40:48;5.45;;;2.22;;
23300;SDS011;11819;51.394;12.340;2023-03-26T03:43:14;6.37;;;2.27;;
23300;SDS011;11819;51.394;12.340;2023-03-26T03:45:53;4.35;;;2.83;;
23300;SDS011;11819;51.394;12.340;2023-03-26T03:48:37;5.20;;;2.40;;
23300;SDS011;11819;51.394;12.340;2023-03-26T03:51:04;7.55;;;2.88;;
23300;SDS011;11819;51.394;12.340;2023-03-26T03:53:46;4.85;;;2.38;;
23300;SDS011;11819;51.394;12.340;2023-03-26T03:56:16;5.00;;;2.35;;
23300;SDS011;11819;51.394;12.340;2023-03-26T03:59:03;7.13;;;2.58;;
23300;SDS011;11819;51.394;12.340;2023-03-26T04:01:32;5.88;;;2.72;;
23300;SDS011;11819;51.394;12.340;2023-03-26T04:04:04;5.75;;;2.25;;
23300;SDS011;11819;51.394;12.340;2023-03-26T04:06:52;4.88;;;1.85;;
23300;SDS011;11819;51.394;12.340;2023-03-26T04:09:22;5.83;;;2.50;;
23300;SDS011;11819;51.394;12.340;2023-03-26T04:11:55;6.72;;;2.58;;
23300;SDS011;11819;51.394;12.340;2023-03-26T04:14:44;3.75;;;2.30;;
23300;SDS011;11819;51.394;12.340;2023-03-26T04:17:13;4.18;;;2.00;;
23300;SDS011;11819;51.394;12.340;2023-03-26T04:19:39;4.68;;;2.13;;
23300;SDS011;11819;51.394;12.340;2023-03-26T04:22:07;6.80;;;2.83;;
23300;SDS011;11819;51.394;12.340;2023-03-26T04:24:40;5.27;;;2.73;;
23300;SDS011;11819;51.394;12.340;2023-03-26T04:27:08;6.35;;;2.85;;
23300;SDS011;11819;51.394;12.340;2023-03-26T04:29:41;5.32;;;2.95;;
23300;SDS011;11819;51.394;12.340;2023-03-26T04:32:21;4.47;;;2.40;;
23300;SDS011;11819;51.394;12.340;2023-03-26T04:34:51;5.60;;;2.80;;
23300;SDS011;11819;51.394;12.340;2023-03-26T04:37:23;8.20;;;3.67;;
23300;SDS011;11819;51.394;12.340;2023-03-26T04:40:03;7.67;;;3.33;;
23300;SDS011;11819;51.394;12.340;2023-03-26T04:42:36;5.70;;;3.23;;
23300;SDS011;11819;51.394;12.340;2023-03-26T04:45:14;8.63;;;4.43;;
23300;SDS011;11819;51.394;12.340;2023-03-26T04:47:49;6.68;;;3.22;;
23300;SDS011;11819;51.394;12.340;2023-03-26T04:50:15;6.57;;;3.08;;
23300;SDS011;11819;51.394;12.340;2023-03-26T04:52:41;7.13;;;3.50;;
23300;SDS011;11819;51.394;12.340;2023-03-26T04:55:34;7.20;;;3.43;;
23300;SDS011;11819;51.394;12.340;2023-03-26T04:58:13;7.07;;;2.80;;
23300;SDS011;11819;51.394;12.340;2023-03-26T05:00:53;4.70;;;2.45;;
23300;SDS011;11819;51.394;12.340;2023-03-26T05:03:19;4.93;;;2.27;;
23300;SDS011;11819;51.394;12.340;2023-03-26T05:05:45;3.10;;;1.42;;
23300;SDS011;11819;51.394;12.340;2023-03-26T05:08:13;4.68;;;1.90;;
23300;SDS011;11819;51.394;12.340;2023-03-26T05:10:39;3.97;;;2.33;;
23300;SDS011;11819;51.394;12.340;2023-03-26T05:13:11;6.30;;;2.42;;
23300;SDS011;11819;51.394;12.340;2023-03-26T05:15:41;6.43;;;2.30;;
23300;SDS011;11819;51.394;12.340;2023-03-26T05:18:10;5.07;;;2.35;;
23300;SDS011;11819;51.394;12.340;2023-03-26T05:20:39;3.77;;;2.00;;
23300;SDS011;11819;51.394;12.340;2023-03-26T05:23:07;4.53;;;2.10;;
23300;SDS011;11819;51.394;12.340;2023-03-26T05:25:39;5.35;;;2.45;;
23300;SDS011;11819;51.394;12.340;2023-03-26T05:28:13;4.30;;;2.30;;
23300;SDS011;11819;51.394;12.340;2023-03-26T05:31:05;5.50;;;2.58;;
23300;SDS011;11819;51.394;12.340;2023-03-26T05:33:36;4.80;;;2.33;;
23300;SDS011;11819;51.394;12.340;2023-03-26T05:36:07;5.53;;;2.67;;
23300;SDS011;11819;51.394;12.340;2023-03-26T05:38:38;3.17;;;1.93;;
23300;SDS011;11819;51.394;12.340;2023-03-26T05:41:08;4.90;;;2.30;;
23300;SDS011;11819;51.394;12.340;2023-03-26T05:43:36;2.55;;;1.67;;
23300;SDS011;11819;51.394;12.340;2023-03-26T05:46:08;5.88;;;2.40;;
23300;SDS011;11819;51.394;12.340;2023-03-26T05:48:34;4.85;;;2.50;;
23300;SDS011;11819;51.394;12.340;2023-03-26T05:51:02;3.55;;;1.85;;
23300;SDS011;11819;51.394;12.340;2023-03-26T05:53:30;5.28;;;2.60;;
23300;SDS011;11819;51.394;12.340;2023-03-26T05:56:14;6.07;;;3.33;;
23300;SDS011;11819;51.394;12.340;2023-03-26T05:58:58;3.88;;;2.28;;
23300;SDS011;11819;51.394;12.340;2023-03-26T06:02:02;3.20;;;1.52;;
23300;SDS011;11819;51.394;12.340;2023-03-26T06:04:48;3.40;;;1.98;;
23300;SDS011;11819;51.394;12.340;2023-03-26T06:07:30;3.80;;;2.10;;
23300;SDS011;11819;51.394;12.340;2023-03-26T06:10:18;2.55;;;1.63;;
23300;SDS011;11819;51.394;12.340;2023-03-26T06:12:44;4.50;;;2.08;;
23300;SDS011;11819;51.394;12.340;2023-03-26T06:15:10;3.28;;;1.75;;
23300;SDS011;11819;51.394;12.340;2023-03-26T06:17:42;3.42;;;1.80;;
23300;SDS011;11819;51.394;12.340;2023-03-26T06:20:31;2.70;;;1.77;;
23300;SDS011;11819;51.394;12.340;2023-03-26T06:22:58;2.72;;;1.63;;
23300;SDS011;11819;51.394;12.340;2023-03-26T06:25:47;5.07;;;2.20;;
23300;SDS011;11819;51.394;12.340;2023-03-26T06:28:27;3.47;;;2.00;;
23300;SDS011;11819;51.394;12.340;2023-03-26T06:31:11;4.10;;;1.95;;
23300;SDS011;11819;51.394;12.340;2023-03-26T06:33:48;2.30;;;1.35;;
23300;SDS011;11819;51.394;12.340;2023-03-26T06:36:15;3.13;;;1.77;;
23300;SDS011;11819;51.394;12.340;2023-03-26T06:38:40;4.03;;;1.60;;
23300;SDS011;11819;51.394;12.340;2023-03-26T06:41:07;5.32;;;2.50;;
23300;SDS011;11819;51.394;12.340;2023-03-26T06:43:56;4.20;;;2.22;;
23300;SDS011;11819;51.394;12.340;2023-03-26T06:46:42;5.00;;;2.20;;
23300;SDS011;11819;51.394;12.340;2023-03-26T06:49:39;3.55;;;2.10;;
23300;SDS011;11819;51.394;12.340;2023-03-26T06:52:26;4.47;;;2.15;;
23300;SDS011;11819;51.394;12.340;2023-03-26T06:55:18;4.72;;;1.90;;
23300;SDS011;11819;51.394;12.340;2023-03-26T06:58:03;3.60;;;1.92;;
23300;SDS011;11819;51.394;12.340;2023-03-26T07:00:43;3.00;;;2.00;;
23300;SDS011;11819;51.394;12.340;2023-03-26T07:03:27;4.88;;;2.13;;
23300;SDS011;11819;51.394;12.340;2023-03-26T07:06:12;3.55;;;1.98;;
23300;SDS011;11819;51.394;12.340;2023-03-26T07:09:15;3.80;;;2.05;;
23300;SDS011;11819;51.394;12.340;2023-03-26T07:11:53;3.65;;;1.90;;
23300;SDS011;11819;51.394;12.340;2023-03-26T07:14:39;6.15;;;1.90;;
23300;SDS011;11819;51.394;12.340;2023-03-26T07:17:30;5.18;;;2.13;;
23300;SDS011;11819;51.394;12.340;2023-03-26T07:20:20;3.35;;;1.95;;
23300;SDS011;11819;51.394;12.340;2023-03-26T07:22:47;4.38;;;2.17;;
23300;SDS011;11819;51.394;12.340;2023-03-26T07:25:51;4.57;;;2.42;;
23300;SDS011;11819;51.394;12.340;2023-03-26T07:28:46;4.57;;;2.15;;
23300;SDS011;11819;51.394;12.340;2023-03-26T07:34:55;5.20;;;2.20;;
23300;SDS011;11819;51.394;12.340;2023-03-26T07:46:09;5.32;;;2.67;;
23300;SDS011;11819;51.394;12.340;2023-03-26T07:48:47;5.97;;;2.47;;
23300;SDS011;11819;51.394;12.340;2023-03-26T07:51:25;8.30;;;2.33;;
23300;SDS011;11819;51.394;12.340;2023-03-26T07:54:09;6.32;;;2.40;;
23300;SDS011;11819;51.394;12.340;2023-03-26T07:56:59;6.45;;;2.33;;
23300;SDS011;11819;51.394;12.340;2023-03-26T07:59:57;6.55;;;2.25;;
23300;SDS011;11819;51.394;12.340;2023-03-26T08:08:59;3.88;;;2.00;;
23300;SDS011;11819;51.394;12.340;2023-03-26T08:12:00;8.15;;;2.80;;
23300;SDS011;11819;51.394;12.340;2023-03-26T08:22:37;8.63;;;2.58;;
23300;SDS011;11819;51.394;12.340;2023-03-26T08:25:28;6.53;;;2.38;;
23300;SDS011;11819;51.394;12.340;2023-03-26T08:30:45;7.22;;;2.80;;
23300;SDS011;11819;51.394;12.340;2023-03-26T08:33:12;9.10;;;3.03;;
23300;SDS011;11819;51.394;12.340;2023-03-26T08:35:42;8.73;;;2.90;;
23300;SDS011;11819;51.394;12.340;2023-03-26T08:38:09;5.47;;;1.83;;
23300;SDS011;11819;51.394;12.340;2023-03-26T08:51:56;5.75;;;2.38;;
23300;SDS011;11819;51.394;12.340;2023-03-26T09:05:44;11.52;;;3.90;;
23300;SDS011;11819;51.394;12.340;2023-03-26T09:17:09;9.23;;;3.55;;
23300;SDS011;11819;51.394;12.340;2023-03-26T09:34:27;12.35;;;4.25;;
23300;SDS011;11819;51.394;12.340;2023-03-26T09:37:12;11.15;;;4.38;;
23300;SDS011;11819;51.394;12.340;2023-03-26T09:43:35;11.35;;;3.85;;
23300;SDS011;11819;51.394;12.340;2023-03-26T09:54:54;10.05;;;3.67;;
23300;SDS011;11819;51.394;12.340;2023-03-26T10:03:28;13.35;;;4.90;;
23300;SDS011;11819;51.394;12.340;2023-03-26T10:06:11;10.00;;;4.05;;
23300;SDS011;11819;51.394;12.340;2023-03-26T10:08:54;8.40;;;3.45;;
23300;SDS011;11819;51.394;12.340;2023-03-26T10:14:22;9.38;;;3.90;;
23300;SDS011;11819;51.394;12.340;2023-03-26T10:25:21;12.73;;;5.63;;
23300;SDS011;11819;51.394;12.340;2023-03-26T10:28:04;14.88;;;4.68;;
23300;SDS011;11819;51.394;12.340;2023-03-26T10:33:35;9.48;;;4.38;;
23300;SDS011;11819;51.394;12.340;2023-03-26T10:36:27;9.70;;;4.40;;
23300;SDS011;11819;51.394;12.340;2023-03-26T10:39:07;11.38;;;5.45;;
23300;SDS011;11819;51.394;12.340;2023-03-26T10:47:34;12.20;;;3.95;;
23300;SDS011;11819;51.394;12.340;2023-03-26T10:55:54;10.32;;;4.55;;
23300;SDS011;11819;51.394;12.340;2023-03-26T10:58:33;8.95;;;4.45;;
23300;SDS011;11819;51.394;12.340;2023-03-26T11:01:03;10.27;;;5.05;;
23300;SDS011;11819;51.394;12.340;2023-03-26T11:03:38;12.00;;;5.65;;
23300;SDS011;11819;51.394;12.340;2023-03-26T11:06:35;11.85;;;4.38;;
23300;SDS011;11819;51.394;12.340;2023-03-26T11:11:48;9.07;;;4.95;;
23300;SDS011;11819;51.394;12.340;2023-03-26T11:19:49;11.20;;;5.18;;
23300;SDS011;11819;51.394;12.340;2023-03-26T11:30:47;9.05;;;3.80;;
23300;SDS011;11819;51.394;12.340;2023-03-26T11:33:21;10.85;;;4.25;;
23300;SDS011;11819;51.394;12.340;2023-03-26T11:35:51;6.03;;;3.72;;
23300;SDS011;11819;51.394;12.340;2023-03-26T11:38:25;7.45;;;4.05;;
23300;SDS011;11819;51.394;12.340;2023-03-26T11:40:57;9.65;;;2.92;;
23300;SDS011;11819;51.394;12.340;2023-03-26T11:43:58;7.50;;;3.22;;
23300;SDS011;11819;51.394;12.340;2023-03-26T11:46:45;8.60;;;3.60;;
23300;SDS011;11819;51.394;12.340;2023-03-26T11:49:13;7.78;;;3.97;;
23300;SDS011;11819;51.394;12.340;2023-03-26T11:51:42;11.95;;;4.50;;
23300;SDS011;11819;51.394;12.340;2023-03-26T11:54:11;11.10;;;4.40;;
23300;SDS011;11819;51.394;12.340;2023-03-26T12:01:56;8.80;;;3.97;;
23300;SDS011;11819;51.394;12.340;2023-03-26T12:04:43;9.23;;;4.25;;
23300;SDS011;11819;51.394;12.340;2023-03-26T12:09:53;8.48;;;3.10;;
23300;SDS011;11819;51.394;12.340;2023-03-26T12:12:23;8.85;;;3.50;;
23300;SDS011;11819;51.394;12.340;2023-03-26T12:14:50;8.38;;;3.42;;
23300;SDS011;11819;51.394;12.340;2023-03-26T12:17:35;9.98;;;3.13;;
23300;SDS011;11819;51.394;12.340;2023-03-26T12:20:49;9.27;;;3.85;;
23300;SDS011;11819;51.394;12.340;2023-03-26T12:22:57;10.75;;;3.55;;
23300;SDS011;11819;51.394;12.340;2023-03-26T12:30:41;11.32;;;4.00;;
23300;SDS011;11819;51.394;12.340;2023-03-26T12:33:18;9.93;;;3.70;;
23300;SDS011;11819;51.394;12.340;2023-03-26T12:35:52;7.63;;;3.45;;
23300;SDS011;11819;51.394;12.340;2023-03-26T12:38:30;7.80;;;3.70;;
23300;SDS011;11819;51.394;12.340;2023-03-26T12:41:04;12.38;;;5.10;;
23300;SDS011;11819;51.394;12.340;2023-03-26T12:43:42;11.90;;;4.60;;
23300;SDS011;11819;51.394;12.340;2023-03-26T12:46:21;7.85;;;3.60;;
23300;SDS011;11819;51.394;12.340;2023-03-26T12:48:57;9.02;;;3.40;;
23300;SDS011;11819;51.394;12.340;2023-03-26T12:54:08;7.75;;;3.10;;
23300;SDS011;11819;51.394;12.340;2023-03-26T13:02:39;6.50;;;2.70;;
23300;SDS011;11819;51.394;12.340;2023-03-26T13:16:35;9.25;;;2.60;;
23300;SDS011;11819;51.394;12.340;2023-03-26T13:19:21;5.82;;;2.30;;
23300;SDS011;11819;51.394;12.340;2023-03-26T13:30:23;4.82;;;2.83;;
23300;SDS011;11819;51.394;12.340;2023-03-26T13:33:03;3.72;;;1.98;;
23300;SDS011;11819;51.394;12.340;2023-03-26T13:35:58;6.18;;;2.50;;
23300;SDS011;11819;51.394;12.340;2023-03-26T13:41:42;2.97;;;1.80;;
23300;SDS011;11819;51.394;12.340;2023-03-26T13:47:30;5.40;;;2.15;;
23300;SDS011;11819;51.394;12.340;2023-03-26T13:50:02;5.72;;;1.98;;
23300;SDS011;11819;51.394;12.340;2023-03-26T13:52:39;5.20;;;2.30;;
23300;SDS011;11819;51.394;12.340;2023-03-26T13:58:15;5.90;;;2.38;;
23300;SDS011;11819;51.394;12.340;2023-03-26T14:01:06;4.95;;;2.15;;
23300;SDS011;11819;51.394;12.340;2023-03-26T14:06:29;3.75;;;1.80;;
23300;SDS011;11819;51.394;12.340;2023-03-26T14:09:22;5.47;;;1.98;;
23300;SDS011;11819;51.394;12.340;2023-03-26T14:11:57;8.32;;;2.60;;
23300;SDS011;11819;51.394;12.340;2023-03-26T14:17:14;6.60;;;2.75;;
23300;SDS011;11819;51.394;12.340;2023-03-26T14:39:11;4.53;;;2.20;;
23300;SDS011;11819;51.394;12.340;2023-03-26T14:47:58;5.88;;;2.88;;
23300;SDS011;11819;51.394;12.340;2023-03-26T14:53:37;5.70;;;2.55;;
23300;SDS011;11819;51.394;12.340;2023-03-26T14:56:11;6.72;;;2.72;;
23300;SDS011;11819;51.394;12.340;2023-03-26T15:01:20;6.72;;;2.83;;
23300;SDS011;11819;51.394;12.340;2023-03-26T15:06:39;5.88;;;2.58;;
23300;SDS011;11819;51.394;12.340;2023-03-26T15:09:24;7.00;;;2.80;;
23300;SDS011;11819;51.394;12.340;2023-03-26T15:44:00;8.80;;;4.10;;
23300;SDS011;11819;51.394;12.340;2023-03-26T15:49:18;9.82;;;3.75;;
23300;SDS011;11819;51.394;12.340;2023-03-26T15:51:54;7.35;;;3.30;;
23300;SDS011;11819;51.394;12.340;2023-03-26T15:54:35;8.35;;;3.75;;
23300;SDS011;11819;51.394;12.340;2023-03-26T16:00:26;6.43;;;3.10;;
23300;SDS011;11819;51.394;12.340;2023-03-26T16:11:59;7.25;;;3.20;;
23300;SDS011;11819;51.394;12.340;2023-03-26T16:26:14;9.45;;;3.60;;
23300;SDS011;11819;51.394;12.340;2023-03-26T16:38:54;8.85;;;3.58;;
23300;SDS011;11819;51.394;12.340;2023-03-26T16:44:12;7.53;;;3.40;;
23300;SDS011;11819;51.394;12.340;2023-03-26T16:52:42;7.25;;;3.10;;
23300;SDS011;11819;51.394;12.340;2023-03-26T17:01:03;7.97;;;4.05;;
23300;SDS011;11819;51.394;12.340;2023-03-26T17:03:37;8.45;;;4.80;;
23300;SDS011;11819;51.394;12.340;2023-03-26T17:06:24;8.57;;;5.28;;
23300;SDS011;11819;51.394;12.340;2023-03-26T17:11:45;12.48;;;7.00;;
23300;SDS011;11819;51.394;12.340;2023-03-26T17:14:48;9.73;;;6.03;;
23300;SDS011;11819;51.394;12.340;2023-03-26T17:29:42;8.18;;;5.85;;
23300;SDS011;11819;51.394;12.340;2023-03-26T17:32:11;11.85;;;5.10;;
23300;SDS011;11819;51.394;12.340;2023-03-26T17:43:07;12.73;;;7.70;;
23300;SDS011;11819;51.394;12.340;2023-03-26T17:45:36;8.02;;;4.72;;
23300;SDS011;11819;51.394;12.340;2023-03-26T17:48:07;7.30;;;4.60;;
23300;SDS011;11819;51.394;12.340;2023-03-26T17:50:44;7.07;;;4.35;;
23300;SDS011;11819;51.394;12.340;2023-03-26T17:53:31;6.75;;;3.90;;
23300;SDS011;11819;51.394;12.340;2023-03-26T17:56:03;7.30;;;3.97;;
23300;SDS011;11819;51.394;12.340;2023-03-26T17:58:39;8.10;;;4.00;;
23300;SDS011;11819;51.394;12.340;2023-03-26T18:01:20;7.72;;;4.00;;
23300;SDS011;11819;51.394;12.340;2023-03-26T18:03:58;8.85;;;4.78;;
23300;SDS011;11819;51.394;12.340;2023-03-26T18:20:52;6.60;;;3.95;;
23300;SDS011;11819;51.394;12.340;2023-03-26T18:25:57;6.20;;;3.47;;
23300;SDS011;11819;51.394;12.340;2023-03-26T18:28:34;7.50;;;3.90;;
23300;SDS011;11819;51.394;12.340;2023-03-26T18:31:24;9.98;;;5.50;;
23300;SDS011;11819;51.394;12.340;2023-03-26T18:33:54;7.95;;;4.10;;
23300;SDS011;11819;51.394;12.340;2023-03-26T18:36:24;10.10;;;5.43;;
23300;SDS011;11819;51.394;12.340;2023-03-26T18:39:00;7.07;;;4.75;;
23300;SDS011;11819;51.394;12.340;2023-03-26T18:41:29;7.25;;;4.90;;
23300;SDS011;11819;51.394;12.340;2023-03-26T18:44:01;8.45;;;5.95;;
23300;SDS011;11819;51.394;12.340;2023-03-26T18:46:29;8.45;;;5.00;;
23300;SDS011;11819;51.394;12.340;2023-03-26T18:48:57;7.28;;;4.22;;
23300;SDS011;11819;51.394;12.340;2023-03-26T18:51:25;7.25;;;4.30;;
23300;SDS011;11819;51.394;12.340;2023-03-26T18:53:54;6.78;;;3.85;;
23300;SDS011;11819;51.394;12.340;2023-03-26T18:56:35;6.85;;;3.95;;
23300;SDS011;11819;51.394;12.340;2023-03-26T18:59:03;6.50;;;4.03;;
23300;SDS011;11819;51.394;12.340;2023-03-26T19:01:31;6.13;;;3.83;;
23300;SDS011;11819;51.394;12.340;2023-03-26T19:04:02;5.80;;;3.63;;
23300;SDS011;11819;51.394;12.340;2023-03-26T19:06:30;6.32;;;3.72;;
23300;SDS011;11819;51.394;12.340;2023-03-26T19:09:00;7.40;;;4.03;;
23300;SDS011;11819;51.394;12.340;2023-03-26T19:11:30;8.70;;;4.15;;
23300;SDS011;11819;51.394;12.340;2023-03-26T19:13:57;9.05;;;4.93;;
23300;SDS011;11819;51.394;12.340;2023-03-26T19:16:28;7.13;;;4.57;;
23300;SDS011;11819;51.394;12.340;2023-03-26T19:18:58;8.80;;;4.45;;
23300;SDS011;11819;51.394;12.340;2023-03-26T19:21:26;7.65;;;4.53;;
23300;SDS011;11819;51.394;12.340;2023-03-26T19:23:52;6.57;;;4.30;;
23300;SDS011;11819;51.394;12.340;2023-03-26T19:26:18;9.25;;;4.20;;
23300;SDS011;11819;51.394;12.340;2023-03-26T19:28:45;8.63;;;4.10;;
23300;SDS011;11819;51.394;12.340;2023-03-26T19:34:02;5.50;;;3.50;;
23300;SDS011;11819;51.394;12.340;2023-03-26T19:36:33;8.10;;;3.40;;
23300;SDS011;11819;51.394;12.340;2023-03-26T19:41:41;5.25;;;3.10;;
23300;SDS011;11819;51.394;12.340;2023-03-26T19:46:42;7.30;;;4.05;;
23300;SDS011;11819;51.394;12.340;2023-03-26T19:52:01;8.18;;;4.70;;
23300;SDS011;11819;51.394;12.340;2023-03-26T19:54:49;10.15;;;5.30;;
23300;SDS011;11819;51.394;12.340;2023-03-26T19:57:26;10.20;;;6.35;;
23300;SDS011;11819;51.394;12.340;2023-03-26T19:59:53;11.68;;;6.38;;
23300;SDS011;11819;51.394;12.340;2023-03-26T20:02:19;10.05;;;5.93;;
23300;SDS011;11819;51.394;12.340;2023-03-26T20:04:46;11.23;;;6.32;;
23300;SDS011;11819;51.394;12.340;2023-03-26T20:07:19;10.15;;;5.50;;
23300;SDS011;11819;51.394;12.340;2023-03-26T20:09:51;9.95;;;5.68;;
23300;SDS011;11819;51.394;12.340;2023-03-26T20:12:17;13.25;;;7.07;;
23300;SDS011;11819;51.394;12.340;2023-03-26T20:14:43;10.13;;;5.57;;
23300;SDS011;11819;51.394;12.340;2023-03-26T20:17:16;12.50;;;5.53;;
23300;SDS011;11819;51.394;12.340;2023-03-26T20:19:45;10.25;;;5.35;;
23300;SDS011;11819;51.394;12.340;2023-03-26T20:22:12;8.32;;;5.20;;
23300;SDS011;11819;51.394;12.340;2023-03-26T20:24:39;10.68;;;5.90;;
23300;SDS011;11819;51.394;12.340;2023-03-26T20:27:05;12.57;;;5.38;;
23300;SDS011;11819;51.394;12.340;2023-03-26T20:29:31;10.27;;;6.00;;
23300;SDS011;11819;51.394;12.340;2023-03-26T20:31:57;10.15;;;5.63;;
23300;SDS011;11819;51.394;12.340;2023-03-26T20:34:23;12.38;;;5.60;;
23300;SDS011;11819;51.394;12.340;2023-03-26T20:36:49;13.77;;;6.15;;
23300;SDS011;11819;51.394;12.340;2023-03-26T20:39:19;10.40;;;6.30;;
23300;SDS011;11819;51.394;12.340;2023-03-26T20:41:47;9.80;;;5.20;;
23300;SDS011;11819;51.394;12.340;2023-03-26T20:44:15;7.93;;;4.55;;
23300;SDS011;11819;51.394;12.340;2023-03-26T20:46:43;9.15;;;4.63;;
23300;SDS011;11819;51.394;12.340;2023-03-26T20:49:10;6.97;;;4.15;;
23300;SDS011;11819;51.394;12.340;2023-03-26T20:51:36;8.63;;;4.10;;
23300;SDS011;11819;51.394;12.340;2023-03-26T20:54:10;7.85;;;3.80;;
23300;SDS011;11819;51.394;12.340;2023-03-26T20:56:41;8.40;;;3.50;;
23300;SDS011;11819;51.394;12.340;2023-03-26T20:59:15;6.60;;;3.50;;
23300;SDS011;11819;51.394;12.340;2023-03-26T21:01:46;6.47;;;3.10;;
23300;SDS011;11819;51.394;12.340;2023-03-26T21:04:15;7.82;;;3.53;;
23300;SDS011;11819;51.394;12.340;2023-03-26T21:06:42;6.63;;;3.28;;
23300;SDS011;11819;51.394;12.340;2023-03-26T21:09:10;7.90;;;3.42;;
23300;SDS011;11819;51.394;12.340;2023-03-26T21:14:33;7.03;;;4.07;;
23300;SDS011;11819;51.394;12.340;2023-03-26T21:17:05;8.57;;;4.38;;
23300;SDS011;11819;51.394;12.340;2023-03-26T21:19:42;10.13;;;4.60;;
23300;SDS011;11819;51.394;12.340;2023-03-26T21:22:11;11.02;;;4.88;;
23300;SDS011;11819;51.394;12.340;2023-03-26T21:27:46;8.95;;;5.05;;
23300;SDS011;11819;51.394;12.340;2023-03-26T21:30:24;10.68;;;5.35;;
23300;SDS011;11819;51.394;12.340;2023-03-26T21:32:50;10.30;;;5.90;;